BIM weather

South Bimini Airport
South Bimini, Bimini, Bahamas

Public forecast

Using degrees Celsius for public forecast. Weather courtesy of forecast.io.

METAR (pilot weather report)

Closest report is Fort Lauderdale Hollywood International Airport, 52.9 nm (98.0 km) WNW. Retrieved 2019/07/23 13:53 UTC (41 minutes ago):

KFLL 231353Z 27004KT 10SM FEW026 FEW250 29/22 A3000 RMK AO2 SLP158 T02940222

TAF (pilot weather forecast)

Closest forecast is Fort Lauderdale Hollywood International Airport, 52.9 nm (98.0 km) WNW. Retrieved 2019/07/23 12:42 UTC (2 hours ago):

TAF KFLL 231138Z 2312/2418 24005KT P6SM SCT025 BKN250 FM231400 22006KT P6SM SCT025 SCT250 FM231700 16011KT P6SM SHRA VCTS SCT025CB BKN050 BKN250 FM240000 23005KT P6SM SCT025 BKN100 BKN250 FM241400 26008KT P6SM SCT030 SCT250